Time;durP1;ratioP1;P1;durP2;ratioP2;P2;SDS_P1;SDS_P2;PMS_P1;PMS_P2;Temp;Humidity;BMP_temperature;BMP_pressure;BME280_temperature;BME280_humidity;BME280_pressure;Samples;Min_cycle;Max_cycle;Signal;HPM_P1;HPM_P2
2022/10/01 00:03:37;;;;;;;7.53;5.30;;;;;10.70;99895.00;;;;13062698;22;20409;-72
2022/10/01 00:08:40;;;;;;;4.70;4.23;;;;;10.70;99871.00;;;;13015286;22;20203;-73
2022/10/01 00:13:42;;;;;;;4.63;3.50;;;;;10.70;99835.00;;;;13015131;22;20175;-73
2022/10/01 00:18:45;;;;;;;6.60;3.80;;;;;10.70;99843.00;;;;13015114;22;20221;-73
2022/10/01 00:23:51;;;;;;;5.07;3.70;;;;;10.70;99824.00;;;;13040073;22;20190;-72
2022/10/01 00:28:56;;;;;;;4.93;3.40;;;;;10.70;99790.00;;;;13087678;22;20167;-72
2022/10/01 00:33:59;;;;;;;6.10;2.60;;;;;10.80;99767.00;;;;13061850;22;20216;-73
2022/10/01 00:39:00;;;;;;;3.93;2.10;;;;;10.80;99774.00;;;;13115284;22;20198;-73
2022/10/01 00:44:27;;;;;;;4.50;2.57;;;;;10.80;99763.00;;;;13060158;22;20606;-73
2022/10/01 00:49:32;;;;;;;2.67;2.03;;;;;10.80;99764.00;;;;13013518;22;20860;-73
2022/10/01 00:54:41;;;;;;;3.10;2.07;;;;;10.70;99756.00;;;;13040008;22;20670;-72
2022/10/01 00:59:42;;;;;;;2.83;1.60;;;;;10.70;99725.00;;;;13040843;22;20225;-73
2022/10/01 01:04:43;;;;;;;2.83;1.53;;;;;10.70;99746.00;;;;13087552;22;20164;-73
2022/10/01 01:09:48;;;;;;;2.00;1.90;;;;;10.70;99744.00;;;;13041199;22;20191;-72
2022/10/01 01:15:38;;;;;;;1.63;1.13;;;;;10.70;99729.00;;;;13014136;22;20251;-72
2022/10/01 01:20:48;;;;;;;4.00;1.57;;;;;10.70;99724.00;;;;13045233;22;20191;-73
2022/10/01 01:26:13;;;;;;;1.20;1.10;;;;;10.80;99717.00;;;;13039627;22;20172;-73
2022/10/01 01:31:21;;;;;;;1.77;1.50;;;;;10.80;99707.00;;;;13037825;22;20174;-72
2022/10/01 01:36:28;;;;;;;2.23;1.20;;;;;10.80;99707.00;;;;13063227;22;20204;-72
2022/10/01 01:41:33;;;;;;;1.13;1.00;;;;;10.80;99705.00;;;;13042610;22;20171;-72
2022/10/01 01:46:39;;;;;;;1.80;1.20;;;;;10.90;99712.00;;;;13043758;22;20722;-72
2022/10/01 01:51:49;;;;;;;1.20;0.97;;;;;10.90;99709.00;;;;13043487;22;20168;-73
2022/10/01 01:56:52;;;;;;;1.20;0.90;;;;;10.90;99699.00;;;;13041207;22;20274;-72
2022/10/01 02:01:53;;;;;;;1.47;0.60;;;;;10.90;99671.00;;;;13090849;22;20163;-72
2022/10/01 02:07:24;;;;;;;0.80;0.70;;;;;11.00;99630.00;;;;13042348;22;20475;-72
2022/10/01 02:12:31;;;;;;;1.30;0.80;;;;;11.00;99651.00;;;;13089646;22;20183;-72
2022/10/01 02:17:35;;;;;;;1.77;0.87;;;;;11.00;99575.00;;;;13043069;22;20195;-73
2022/10/01 02:22:42;;;;;;;1.00;0.70;;;;;11.10;99576.00;;;;13065328;22;20529;-73
2022/10/01 02:27:52;;;;;;;2.00;0.63;;;;;11.10;99618.00;;;;13067244;22;20183;-73
2022/10/01 02:32:58;;;;;;;0.80;0.73;;;;;11.10;99644.00;;;;13016043;22;20182;-73
2022/10/01 02:38:03;;;;;;;1.07;0.80;;;;;11.10;99669.00;;;;13041587;22;20201;-73
2022/10/01 02:43:09;;;;;;;1.80;0.70;;;;;11.20;99642.00;;;;13063104;22;20160;-73
2022/10/01 02:48:15;;;;;;;0.40;0.40;;;;;11.20;99637.00;;;;13015906;22;20624;-73
2022/10/01 02:53:34;;;;;;;0.93;0.47;;;;;11.20;99649.00;;;;13089079;22;20700;-72
2022/10/01 02:58:36;;;;;;;0.63;0.50;;;;;11.20;99662.00;;;;13088786;22;20186;-72
2022/10/01 03:03:41;;;;;;;0.43;0.43;;;;;11.30;99664.00;;;;13063277;22;20254;-72
2022/10/01 03:08:42;;;;;;;0.60;0.40;;;;;11.30;99666.00;;;;13116330;22;20187;-72
2022/10/01 03:13:43;;;;;;;0.70;0.70;;;;;11.30;99663.00;;;;13060979;22;20163;-72
2022/10/01 03:18:45;;;;;;;1.07;0.97;;;;;11.40;99656.00;;;;13062115;22;20187;-73
2022/10/01 03:23:46;;;;;;;0.93;0.80;;;;;11.40;99644.00;;;;13038253;22;20539;-73
2022/10/01 03:28:47;;;;;;;1.27;1.17;;;;;11.50;99649.00;;;;13015750;22;20182;-73
2022/10/01 03:33:48;;;;;;;1.67;1.17;;;;;11.50;99639.00;;;;13015423;22;20172;-73
2022/10/01 03:38:49;;;;;;;1.07;1.07;;;;;11.60;99633.00;;;;13062471;22;20191;-73
2022/10/01 03:43:50;;;;;;;1.70;1.60;;;;;11.70;99643.00;;;;13087390;22;20850;-72
2022/10/01 03:48:53;;;;;;;1.40;1.30;;;;;11.80;99642.00;;;;13067917;22;20220;-72
2022/10/01 03:53:55;;;;;;;2.00;1.90;;;;;11.90;99645.00;;;;12990197;22;20201;-72
2022/10/01 03:58:56;;;;;;;3.63;1.83;;;;;12.00;99647.00;;;;13086850;22;20646;-72
2022/10/01 04:03:58;;;;;;;2.50;2.23;;;;;12.00;99643.00;;;;13040949;22;20178;-72
2022/10/01 04:08:59;;;;;;;2.03;1.90;;;;;12.10;99647.00;;;;13041082;22;20187;-72
2022/10/01 04:14:00;;;;;;;2.13;2.03;;;;;12.20;99655.00;;;;13063593;22;20175;-72
2022/10/01 04:19:03;;;;;;;2.33;1.80;;;;;12.20;99647.00;;;;13041180;22;20244;-72
2022/10/01 04:24:04;;;;;;;1.70;1.60;;;;;12.30;99656.00;;;;13115819;22;20159;-73
2022/10/01 04:29:06;;;;;;;1.40;1.30;;;;;12.30;99666.00;;;;13061752;22;20162;-72
2022/10/01 04:34:07;;;;;;;3.00;1.80;;;;;12.30;99665.00;;;;13087517;22;20597;-72
2022/10/01 04:39:08;;;;;;;2.60;1.60;;;;;12.30;99685.00;;;;13113522;22;20187;-72
2022/10/01 04:44:09;;;;;;;2.13;1.53;;;;;12.40;99690.00;;;;13066518;22;20210;-72
2022/10/01 04:49:10;;;;;;;2.33;1.30;;;;;12.40;99681.00;;;;13068252;22;20175;-72
2022/10/01 04:54:11;;;;;;;3.57;1.70;;;;;12.40;99685.00;;;;13063116;22;20159;-73
2022/10/01 04:59:13;;;;;;;3.53;1.90;;;;;12.50;99687.00;;;;13036354;22;20192;-72
2022/10/01 05:04:14;;;;;;;2.77;2.33;;;;;12.50;99683.00;;;;13087356;22;20159;-72
2022/10/01 05:09:15;;;;;;;10.00;2.93;;;;;12.60;99706.00;;;;13061491;22;20179;-73
2022/10/01 05:14:19;;;;;;;3.70;2.03;;;;;12.60;99708.00;;;;13089350;22;20159;-73
2022/10/01 05:19:20;;;;;;;2.67;2.00;;;;;12.60;99721.00;;;;13042056;22;20205;-73
2022/10/01 05:24:21;;;;;;;2.27;1.87;;;;;12.60;99717.00;;;;13063159;22;20483;-72
2022/10/01 05:29:22;;;;;;;2.93;2.63;;;;;12.60;99715.00;;;;13017758;22;20185;-73
2022/10/01 05:34:23;;;;;;;3.57;2.00;;;;;12.50;99734.00;;;;13089534;22;20220;-73
2022/10/01 05:39:24;;;;;;;5.77;2.30;;;;;12.50;99744.00;;;;13061701;22;20276;-73
2022/10/01 05:44:26;;;;;;;5.70;2.47;;;;;12.50;99752.00;;;;13013132;22;20308;-73
2022/10/01 05:49:28;;;;;;;6.23;2.13;;;;;12.50;99739.00;;;;13066068;22;20172;-72
2022/10/01 05:54:29;;;;;;;9.23;2.90;;;;;12.50;99751.00;;;;13044173;22;20194;-73
2022/10/01 05:59:30;;;;;;;4.93;2.63;;;;;12.50;99760.00;;;;13040180;22;20199;-72
2022/10/01 06:04:33;;;;;;;5.03;2.60;;;;;12.70;99751.00;;;;13062084;22;20665;-72
2022/10/01 06:09:41;;;;;;;3.77;2.33;;;;;12.80;99756.00;;;;13015552;22;20696;-71
2022/10/01 06:14:42;;;;;;;5.20;2.90;;;;;12.80;99765.00;;;;13041354;22;20197;-72
2022/10/01 06:19:44;;;;;;;4.57;3.03;;;;;12.90;99780.00;;;;13061643;22;20183;-72
2022/10/01 06:24:45;;;;;;;8.13;3.20;;;;;12.90;99780.00;;;;13063897;22;20163;-72
2022/10/01 06:29:46;;;;;;;8.77;4.10;;;;;13.00;99800.00;;;;13037922;22;20207;-72
2022/10/01 06:34:48;;;;;;;7.07;4.20;;;;;13.10;99813.00;;;;13041709;22;20640;-73
2022/10/01 06:39:49;;;;;;;7.20;3.90;;;;;13.20;99805.00;;;;13062807;22;20187;-72
2022/10/01 06:44:50;;;;;;;7.53;3.80;;;;;13.30;99811.00;;;;13061456;22;20164;-72
2022/10/01 06:49:51;;;;;;;6.10;3.23;;;;;13.40;99806.00;;;;13037197;22;20174;-72
2022/10/01 06:54:53;;;;;;;5.40;3.27;;;;;13.40;99820.00;;;;13113984;22;20260;-72
2022/10/01 06:59:54;;;;;;;5.10;3.67;;;;;13.50;99821.00;;;;13038637;22;20191;-71
2022/10/01 07:04:58;;;;;;;8.80;4.50;;;;;13.80;99824.00;;;;13014443;22;20167;-71
2022/10/01 07:10:01;;;;;;;12.67;5.40;;;;;14.40;99836.00;;;;13087678;22;20211;-72
2022/10/01 07:15:07;;;;;;;10.23;6.60;;;;;14.10;99844.00;;;;13115538;22;20819;-72
2022/10/01 07:20:08;;;;;;;10.07;6.30;;;;;14.10;99855.00;;;;13087470;22;20214;-72
2022/10/01 07:25:09;;;;;;;14.53;7.00;;;;;14.50;99868.00;;;;13086838;22;20163;-72
2022/10/01 07:30:10;;;;;;;16.80;7.20;;;;;14.50;99870.00;;;;13086566;22;20175;-71
2022/10/01 07:35:12;;;;;;;11.10;7.33;;;;;14.60;99876.00;;;;13039750;22;20175;-72
2022/10/01 07:40:17;;;;;;;13.83;7.50;;;;;14.70;99876.00;;;;13115942;22;20197;-72
2022/10/01 07:45:18;;;;;;;18.03;7.57;;;;;14.70;99890.00;;;;13039856;22;20254;-72
2022/10/01 07:50:20;;;;;;;19.42;7.85;;;;;14.70;99895.00;;;;13037186;22;20167;-72
2022/10/01 07:55:25;;;;;;;13.77;7.45;;;;;14.80;99913.00;;;;13037147;22;20183;-72
2022/10/01 08:00:29;;;;;;;18.58;7.88;;;;;15.30;99911.00;;;;13060849;22;20179;-72
2022/10/01 08:05:32;;;;;;;16.95;6.47;;;;;15.40;99933.00;;;;13087951;22;20183;-72
2022/10/01 08:10:35;;;;;;;15.70;7.20;;;;;15.90;99931.00;;;;13088353;22;20187;-72
2022/10/01 08:15:37;;;;;;;15.10;7.07;;;;;15.70;99934.00;;;;13115051;22;20655;-72
2022/10/01 08:20:38;;;;;;;18.42;6.78;;;;;15.90;99950.00;;;;13014062;22;20210;-72
2022/10/01 08:25:41;;;;;;;21.95;7.20;;;;;16.60;99946.00;;;;13015496;22;20410;-72
2022/10/01 08:30:42;;;;;;;12.32;5.38;;;;;17.10;99950.00;;;;13038867;22;20176;-72
2022/10/01 08:35:43;;;;;;;15.00;5.15;;;;;17.70;99958.00;;;;13061794;22;20167;-72
2022/10/01 08:40:50;;;;;;;14.57;4.82;;;;;17.70;99966.00;;;;13088156;22;20179;-72
2022/10/01 08:45:54;;;;;;;13.20;4.00;;;;;17.90;99976.00;;;;13114730;22;20640;-72
2022/10/01 08:51:06;;;;;;;12.13;3.97;;;;;18.20;99985.00;;;;13083605;22;20167;-72
2022/10/01 08:56:37;;;;;;;10.85;3.67;;;;;18.60;99988.00;;;;13032766;22;20159;-72
2022/10/01 09:01:38;;;;;;;12.40;3.92;;;;;18.60;99998.00;;;;13062462;22;20216;-72
2022/10/01 09:06:42;;;;;;;8.43;3.03;;;;;18.80;99993.00;;;;13082805;22;20658;-72
2022/10/01 09:12:06;;;;;;;11.00;3.30;;;;;18.30;100025.00;;;;13085335;22;20179;-72
2022/10/01 09:17:29;;;;;;;16.10;4.50;;;;;18.40;100024.00;;;;13086088;22;20214;-72
2022/10/01 09:22:40;;;;;;;12.18;4.90;;;;;19.20;100024.00;;;;13059881;22;20199;-72
2022/10/01 09:27:42;;;;;;;15.90;5.00;;;;;20.10;100027.00;;;;13060317;22;20602;-72
2022/10/01 09:33:03;;;;;;;12.63;4.05;;;;;20.40;100040.00;;;;13039395;22;20172;-72
2022/10/01 09:38:35;;;;;;;12.80;3.92;;;;;19.90;100053.00;;;;13113344;22;20695;-72
2022/10/01 09:43:38;;;;;;;8.90;3.83;;;;;18.70;100060.00;;;;13081916;22;20711;-72
2022/10/01 09:48:51;;;;;;;19.90;4.47;;;;;19.40;100040.00;;;;13064554;22;20228;-72
2022/10/01 09:54:04;;;;;;;14.63;4.35;;;;;19.40;100076.00;;;;13007778;22;20699;-72
2022/10/01 09:59:13;;;;;;;11.40;3.83;;;;;18.20;100094.00;;;;13063087;22;20198;-72
2022/10/01 10:04:20;;;;;;;10.38;4.18;;;;;17.20;100092.00;;;;13038473;22;20246;-72
2022/10/01 10:09:28;;;;;;;8.52;3.63;;;;;16.70;100093.00;;;;13014748;22;20192;-72
2022/10/01 10:14:40;;;;;;;12.95;3.95;;;;;16.60;100108.00;;;;13087085;22;20628;-72
2022/10/01 10:19:50;;;;;;;12.70;3.75;;;;;16.70;100118.00;;;;13088168;22;20199;-73
2022/10/01 10:24:52;;;;;;;13.63;3.60;;;;;17.20;100106.00;;;;13060781;22;20170;-72
2022/10/01 10:30:19;;;;;;;10.60;3.67;;;;;18.90;100118.00;;;;13062571;22;20275;-73
2022/10/01 10:35:24;;;;;;;6.65;2.67;;;;;19.60;100122.00;;;;13036346;22;20254;-73
2022/10/01 10:40:44;;;;;;;10.57;3.38;;;;;20.30;100143.00;;;;13038858;22;20760;-73
2022/10/01 10:45:46;;;;;;;15.00;3.63;;;;;20.00;100162.00;;;;13056081;22;20163;-73
2022/10/01 10:50:47;;;;;;;13.50;3.78;;;;;19.90;100147.00;;;;13034308;22;20549;-72
2022/10/01 10:55:59;;;;;;;12.10;3.60;;;;;20.10;100170.00;;;;13113451;22;20225;-73
2022/10/01 11:01:08;;;;;;;10.55;3.35;;;;;20.20;100174.00;;;;13083657;22;20778;-74
2022/10/01 11:06:13;;;;;;;13.98;4.03;;;;;19.80;100189.00;;;;13112884;22;20167;-73
2022/10/01 11:11:37;;;;;;;8.63;3.05;;;;;21.30;100182.00;;;;13059449;22;20631;-74
2022/10/01 11:16:44;;;;;;;12.90;3.95;;;;;18.90;100203.00;;;;13112935;22;20280;-73
2022/10/01 11:22:06;;;;;;;13.48;4.05;;;;;18.00;100219.00;;;;13114772;22;20164;-72
2022/10/01 11:27:39;;;;;;;10.95;4.22;;;;;17.70;100201.00;;;;13083841;22;20607;-73
2022/10/01 11:32:52;;;;;;;10.57;4.50;;;;;19.20;100204.00;;;;13012541;22;20713;-72
2022/10/01 11:38:21;;;;;;;11.48;4.53;;;;;20.20;100210.00;;;;13086828;22;20282;-73
2022/10/01 11:43:30;;;;;;;13.57;3.83;;;;;21.00;100223.00;;;;13085584;22;20607;-73
2022/10/01 11:48:46;;;;;;;10.77;3.63;;;;;21.40;100225.00;;;;13060697;22;20778;-72
2022/10/01 11:53:57;;;;;;;12.50;3.22;;;;;21.60;100237.00;;;;13037229;22;20208;-73
2022/10/01 11:59:05;;;;;;;11.93;3.28;;;;;20.90;100235.00;;;;13041527;22;20199;-72
2022/10/01 12:04:24;;;;;;;12.52;2.88;;;;;19.70;100244.00;;;;13014449;22;20176;-73
2022/10/01 12:09:44;;;;;;;12.43;3.13;;;;;19.50;100240.00;;;;13062081;22;20322;-73
2022/10/01 12:14:55;;;;;;;5.38;1.95;;;;;19.50;100256.00;;;;13115976;22;20159;-73
2022/10/01 12:19:58;;;;;;;11.98;2.25;;;;;19.30;100239.00;;;;13036557;22;20226;-72
2022/10/01 12:25:00;;;;;;;12.30;2.95;;;;;20.60;100249.00;;;;13037046;22;20159;-73
2022/10/01 12:30:14;;;;;;;12.43;2.85;;;;;21.30;100262.00;;;;13059748;22;20170;-73
2022/10/01 12:35:24;;;;;;;11.27;2.60;;;;;21.50;100256.00;;;;13015395;22;20202;-73
2022/10/01 12:40:39;;;;;;;10.18;2.40;;;;;20.50;100278.00;;;;13018701;22;20191;-73
2022/10/01 12:46:01;;;;;;;10.90;2.53;;;;;20.20;100287.00;;;;13061538;22;20297;-73
2022/10/01 12:51:46;;;;;;;8.90;2.47;;;;;20.30;100279.00;;;;13082484;22;20156;-74
2022/10/01 12:57:07;;;;;;;9.25;2.50;;;;;21.00;100277.00;;;;12917739;22;20224;-73
2022/10/01 13:02:11;;;;;;;8.82;2.08;;;;;21.40;100286.00;;;;13033935;22;20235;-73
2022/10/01 13:07:46;;;;;;;11.68;2.08;;;;;21.50;100302.00;;;;13082880;22;20167;-73
2022/10/01 13:13:25;;;;;;;11.13;2.50;;;;;21.70;100311.00;;;;13034700;22;20853;-73
2022/10/01 13:18:45;;;;;;;7.53;1.90;;;;;22.80;100309.00;;;;12871334;22;20206;-73
2022/10/01 13:24:03;;;;;;;8.95;2.25;;;;;22.70;100318.00;;;;13033060;22;20179;-74
2022/10/01 13:29:38;;;;;;;8.82;1.83;;;;;21.50;100337.00;;;;13085120;22;20162;-73
2022/10/01 13:34:42;;;;;;;10.85;3.35;;;;;19.80;100334.00;;;;13037076;22;20186;-73
2022/10/01 13:39:45;;;;;;;8.90;2.22;;;;;18.60;100336.00;;;;13111629;22;20202;-72
2022/10/01 13:44:53;;;;;;;11.80;2.58;;;;;18.00;100358.00;;;;13011891;22;20657;-72
2022/10/01 13:50:19;;;;;;;10.27;2.08;;;;;18.90;100353.00;;;;13088736;22;20172;-72
2022/10/01 13:55:27;;;;;;;10.70;1.90;;;;;20.80;100353.00;;;;13012094;22;20168;-72
2022/10/01 14:00:28;;;;;;;10.60;1.83;;;;;21.50;100348.00;;;;13066056;22;20527;-73
2022/10/01 14:05:39;;;;;;;8.13;1.83;;;;;21.20;100361.00;;;;13056860;22;20247;-72
2022/10/01 14:16:15;;;;;;;7.70;1.98;;;;;20.40;100374.00;;;;13076637;22;20177;-73
2022/10/01 14:21:47;;;;;;;6.85;2.35;;;;;19.40;100381.00;;;;13086188;22;20183;-73
2022/10/01 14:26:58;;;;;;;8.88;2.03;;;;;18.90;100404.00;;;;13036726;22;20179;-72
2022/10/01 14:32:20;;;;;;;11.15;1.75;;;;;18.90;100412.00;;;;13064014;22;20171;-73
2022/10/01 14:37:21;;;;;;;10.50;2.03;;;;;18.40;100384.00;;;;13083677;22;20215;-73
2022/10/01 14:42:23;;;;;;;10.20;2.40;;;;;18.50;100418.00;;;;13036925;22;20173;-72
2022/10/01 14:47:26;;;;;;;8.23;1.98;;;;;18.40;100427.00;;;;13087022;22;20159;-73
2022/10/01 14:52:30;;;;;;;6.82;1.85;;;;;18.20;100430.00;;;;13054373;22;20550;-72
2022/10/01 14:57:41;;;;;;;7.90;2.63;;;;;17.80;100438.00;;;;13058739;22;20187;-74
2022/10/01 15:02:48;;;;;;;9.95;1.80;;;;;17.60;100430.00;;;;13034968;22;20221;-72
2022/10/01 15:07:49;;;;;;;6.82;1.83;;;;;17.60;100454.00;;;;13039513;22;21009;-73
2022/10/01 15:12:53;;;;;;;9.60;2.10;;;;;17.70;100463.00;;;;13059932;22;20183;-72
2022/10/01 15:17:55;;;;;;;8.00;1.98;;;;;17.60;100463.00;;;;13005286;22;20203;-73
2022/10/01 15:22:56;;;;;;;5.82;1.90;;;;;17.70;100477.00;;;;13009886;22;20167;-73
2022/10/01 15:28:12;;;;;;;7.88;1.88;;;;;17.70;100486.00;;;;13035877;22;20192;-73
2022/10/01 15:33:32;;;;;;;8.70;2.20;;;;;17.80;100484.00;;;;13084628;22;20171;-73
2022/10/01 15:38:34;;;;;;;7.65;2.08;;;;;17.70;100489.00;;;;13081348;22;20190;-73
2022/10/01 15:43:37;;;;;;;9.07;2.40;;;;;17.60;100512.00;;;;13033691;22;20202;-73
2022/10/01 15:48:39;;;;;;;5.45;2.00;;;;;17.50;100518.00;;;;13106957;22;20649;-73
2022/10/01 15:53:40;;;;;;;8.60;2.45;;;;;17.40;100517.00;;;;13108020;22;20378;-73
2022/10/01 15:59:09;;;;;;;5.70;1.80;;;;;17.30;100519.00;;;;13035302;22;20569;-73
2022/10/01 16:04:13;;;;;;;11.70;2.70;;;;;17.10;100531.00;;;;13055955;22;20167;-73
2022/10/01 16:09:18;;;;;;;6.53;2.10;;;;;17.00;100544.00;;;;13057587;22;20224;-73
2022/10/01 16:14:31;;;;;;;6.57;2.05;;;;;16.90;100541.00;;;;13035950;22;20487;-72
2022/10/01 16:19:33;;;;;;;12.13;2.72;;;;;16.70;100557.00;;;;13084684;22;20180;-73
2022/10/01 16:24:42;;;;;;;9.75;2.33;;;;;16.60;100558.00;;;;13110273;22;20163;-72
2022/10/01 16:30:07;;;;;;;12.90;2.47;;;;;16.60;100570.00;;;;13054861;22;20164;-72
2022/10/01 16:35:34;;;;;;;9.85;2.13;;;;;16.40;100576.00;;;;13085412;22;20229;-73
2022/10/01 16:40:39;;;;;;;10.18;2.08;;;;;16.20;100572.00;;;;13059275;22;20241;-72
2022/10/01 16:45:41;;;;;;;6.53;1.83;;;;;16.10;100583.00;;;;13063334;22;20167;-73
2022/10/01 16:50:45;;;;;;;8.65;2.40;;;;;16.00;100595.00;;;;13082638;22;20159;-73
2022/10/01 16:55:46;;;;;;;9.02;2.22;;;;;15.90;100603.00;;;;13062803;22;20163;-72
2022/10/01 17:00:47;;;;;;;9.82;2.55;;;;;15.60;100608.00;;;;13084782;22;20187;-72
2022/10/01 17:05:48;;;;;;;9.60;2.30;;;;;15.40;100607.00;;;;13035726;22;20435;-72
2022/10/01 17:10:57;;;;;;;9.32;2.95;;;;;15.10;100612.00;;;;13035526;22;20692;-71
2022/10/01 17:16:00;;;;;;;10.95;2.60;;;;;14.90;100621.00;;;;13011039;22;20869;-72
2022/10/01 17:21:03;;;;;;;8.82;2.88;;;;;14.70;100628.00;;;;13038650;22;20191;-74
2022/10/01 17:26:06;;;;;;;7.45;2.20;;;;;14.50;100636.00;;;;13084500;22;20163;-73
2022/10/01 17:31:07;;;;;;;14.70;3.30;;;;;14.50;100645.00;;;;13110831;22;20171;-73
2022/10/01 17:36:09;;;;;;;10.73;2.67;;;;;14.40;100641.00;;;;13084035;22;20178;-72
2022/10/01 17:41:10;;;;;;;13.23;3.00;;;;;14.30;100667.00;;;;13012211;22;20222;-72
2022/10/01 17:46:11;;;;;;;11.73;3.22;;;;;14.20;100674.00;;;;13084644;22;20205;-72
2022/10/01 17:51:14;;;;;;;11.93;3.10;;;;;14.00;100678.00;;;;13084867;22;20167;-72
2022/10/01 17:56:17;;;;;;;9.77;2.90;;;;;13.90;100681.00;;;;13113423;22;20166;-72
2022/10/01 18:01:21;;;;;;;10.37;3.80;;;;;14.00;100684.00;;;;13038538;22;20835;-72
2022/10/01 18:06:23;;;;;;;11.77;3.50;;;;;14.00;100692.00;;;;13052039;22;20624;-72
2022/10/01 18:11:26;;;;;;;10.47;3.93;;;;;14.10;100708.00;;;;13031507;22;20195;-72
2022/10/01 18:16:28;;;;;;;16.70;4.27;;;;;14.10;100703.00;;;;13082342;22;20399;-72
2022/10/01 18:21:31;;;;;;;11.57;4.07;;;;;14.10;100722.00;;;;13014961;22;20218;-72
2022/10/01 18:26:32;;;;;;;12.40;3.33;;;;;14.10;100731.00;;;;13039465;22;20170;-72
2022/10/01 18:31:45;;;;;;;13.17;2.70;;;;;14.10;100739.00;;;;13061053;22;20168;-72
2022/10/01 18:37:07;;;;;;;12.60;3.07;;;;;14.00;100739.00;;;;13088564;22;20164;-72
2022/10/01 18:42:44;;;;;;;11.00;3.10;;;;;13.80;100747.00;;;;13083389;22;20178;-72
2022/10/01 18:48:03;;;;;;;10.70;3.13;;;;;13.70;100756.00;;;;13011191;22;20171;-72
2022/10/01 18:53:26;;;;;;;18.73;3.43;;;;;13.70;100758.00;;;;13014379;22;20653;-72
2022/10/01 18:58:52;;;;;;;14.70;3.43;;;;;13.60;100766.00;;;;13040364;22;20203;-72
2022/10/01 19:04:18;;;;;;;12.13;2.90;;;;;13.50;100771.00;;;;13085601;22;20159;-72
2022/10/01 19:09:41;;;;;;;9.87;3.50;;;;;13.40;100775.00;;;;13013680;22;20191;-72
2022/10/01 19:14:59;;;;;;;18.60;3.87;;;;;13.40;100776.00;;;;13036935;22;20593;-72
2022/10/01 19:20:25;;;;;;;12.60;3.40;;;;;13.40;100790.00;;;;13077832;22;20496;-72
2022/10/01 19:25:52;;;;;;;21.50;3.80;;;;;13.40;100793.00;;;;13059018;22;20782;-72
2022/10/01 19:31:12;;;;;;;19.73;4.83;;;;;13.30;100792.00;;;;13112944;22;20163;-72
2022/10/01 19:36:28;;;;;;;17.47;4.27;;;;;13.30;100788.00;;;;13084577;22;20287;-72
2022/10/01 19:41:42;;;;;;;22.73;3.43;;;;;13.40;100795.00;;;;13084452;22;20191;-72
2022/10/01 19:46:46;;;;;;;26.40;4.47;;;;;13.40;100803.00;;;;13112686;22;20384;-72
2022/10/01 19:51:56;;;;;;;20.90;4.20;;;;;13.30;100821.00;;;;13084942;22;20255;-72
2022/10/01 19:57:16;;;;;;;18.17;4.23;;;;;13.40;100817.00;;;;13010452;22;20306;-72
2022/10/01 20:02:30;;;;;;;17.87;4.17;;;;;13.50;100816.00;;;;13113029;22;20155;-72
2022/10/01 20:07:45;;;;;;;18.77;4.27;;;;;13.50;100817.00;;;;13083103;22;20561;-72
2022/10/01 20:13:02;;;;;;;15.30;4.17;;;;;13.40;100824.00;;;;13084339;22;20183;-72
2022/10/01 20:18:19;;;;;;;18.77;3.67;;;;;13.40;100833.00;;;;13081648;22;20179;-72
2022/10/01 20:23:32;;;;;;;21.67;4.50;;;;;13.40;100834.00;;;;13011167;22;20675;-72
2022/10/01 20:29:03;;;;;;;23.27;4.47;;;;;13.50;100850.00;;;;13056766;22;20155;-72
2022/10/01 20:34:20;;;;;;;24.50;5.23;;;;;13.50;100835.00;;;;13032518;22;20164;-72
2022/10/01 20:39:29;;;;;;;26.73;4.13;;;;;13.60;100855.00;;;;13035995;22;20191;-72
2022/10/01 20:44:34;;;;;;;23.90;4.67;;;;;13.60;100852.00;;;;13057644;22;20164;-72
2022/10/01 20:49:47;;;;;;;26.97;4.60;;;;;13.70;100864.00;;;;13061627;22;20226;-72
2022/10/01 20:54:57;;;;;;;23.83;4.30;;;;;13.70;100866.00;;;;13058567;22;20167;-72
2022/10/01 21:00:19;;;;;;;25.37;4.83;;;;;13.70;100871.00;;;;13109409;22;20420;-72
2022/10/01 21:05:35;;;;;;;23.23;6.27;;;;;13.70;100878.00;;;;13082834;22;20159;-72
2022/10/01 21:10:59;;;;;;;20.53;4.43;;;;;13.80;100886.00;;;;13037674;22;20250;-72
2022/10/01 21:16:12;;;;;;;27.13;4.27;;;;;13.80;100887.00;;;;13034981;22;20770;-72
2022/10/01 21:21:48;;;;;;;19.50;4.20;;;;;13.90;100888.00;;;;13082312;22;20211;-72
2022/10/01 21:27:24;;;;;;;20.27;4.93;;;;;13.90;100892.00;;;;13057511;22;20274;-72
2022/10/01 21:32:47;;;;;;;24.93;4.60;;;;;13.90;100893.00;;;;13058254;22;20179;-72
2022/10/01 21:37:59;;;;;;;23.07;5.53;;;;;13.90;100901.00;;;;13062729;22;20197;-72
2022/10/01 21:43:20;;;;;;;22.80;5.33;;;;;13.90;100917.00;;;;12985620;22;20168;-72
2022/10/01 21:48:36;;;;;;;22.50;4.53;;;;;13.80;100917.00;;;;13054464;22;20175;-72
2022/10/01 21:54:14;;;;;;;28.50;4.87;;;;;13.80;100936.00;;;;13014832;22;20190;-72
2022/10/01 21:59:25;;;;;;;24.83;4.73;;;;;13.90;100936.00;;;;13064807;22;20198;-72
2022/10/01 22:04:37;;;;;;;24.97;5.33;;;;;14.10;100938.00;;;;13114141;22;20163;-72
2022/10/01 22:10:00;;;;;;;22.47;4.60;;;;;14.10;100914.00;;;;13039732;22;20274;-72
2022/10/01 22:15:03;;;;;;;26.13;5.40;;;;;14.10;100916.00;;;;13058986;22;20595;-72
2022/10/01 22:20:06;;;;;;;26.60;4.70;;;;;14.00;100927.00;;;;13058823;22;20222;-72
2022/10/01 22:25:08;;;;;;;29.77;4.90;;;;;14.00;100932.00;;;;13060999;22;20167;-72
2022/10/01 22:30:18;;;;;;;27.37;5.17;;;;;14.10;100943.00;;;;13038295;22;20182;-72
2022/10/01 22:35:26;;;;;;;26.33;4.50;;;;;14.00;100948.00;;;;12984822;22;20665;-72
2022/10/01 22:40:37;;;;;;;26.53;4.90;;;;;13.90;100961.00;;;;13115738;22;20195;-72
2022/10/01 22:45:41;;;;;;;21.77;5.47;;;;;13.90;100967.00;;;;13086940;22;20227;-73
2022/10/01 22:51:17;;;;;;;29.80;5.30;;;;;13.90;100960.00;;;;13062934;22;20168;-72
2022/10/01 22:57:06;;;;;;;33.50;6.10;;;;;13.90;100977.00;;;;13089430;22;20541;-72
2022/10/01 23:02:23;;;;;;;25.40;5.53;;;;;14.00;100966.00;;;;12995086;22;20556;-72
2022/10/01 23:07:27;;;;;;;25.00;4.63;;;;;14.00;100974.00;;;;13089932;22;20202;-72
2022/10/01 23:12:41;;;;;;;24.60;5.10;;;;;14.00;100963.00;;;;13041992;22;20196;-72
2022/10/01 23:18:05;;;;;;;34.33;6.60;;;;;14.10;100973.00;;;;13041414;22;20187;-72
2022/10/01 23:23:07;;;;;;;28.53;5.90;;;;;14.10;100971.00;;;;13015249;22;20175;-72
2022/10/01 23:28:34;;;;;;;27.20;5.63;;;;;14.10;100980.00;;;;13089514;22;20175;-72
2022/10/01 23:33:52;;;;;;;29.70;5.03;;;;;14.10;100991.00;;;;13039510;22;20229;-72
2022/10/01 23:39:29;;;;;;;23.53;5.00;;;;;14.10;100981.00;;;;12991765;22;20199;-73
2022/10/01 23:44:49;;;;;;;31.37;4.97;;;;;14.00;100986.00;;;;13063164;22;20163;-72
2022/10/01 23:49:54;;;;;;;22.27;4.60;;;;;14.10;100992.00;;;;13041210;22;20250;-72
